Pagrindinis puslapis
METAR-TAF:

METAR-TAF

Oro uostai :

Rangūnas, Mianmaras

platuma: 16-46N, ilguma: 096-10E, Aukštis: 14 m

Dabartinis oras

Ataskaita buvo paskelbta 12 minutes, ne 23:30 UTC
Vėjas 1 kt iš Šiaurės/Šiaurės Rytų
Temperatūra 21°C
Drėgmė 83%
Slėgis 1011 hPa
Matomumas: 7000 m

METAR: VYYY 062330Z 03001KT 7000 NSC 21/18 Q1011 NOSIG

Laikas: 06:12 (23:42 UTC)

Prognozė

Ataskaita buvo paskelbta 6 valandos ir 42 minutes, ne 17:00 UTC
Prognozė galioja nuo 06 metu 18 UTC su 07 metu 18 UTC
Vėjas 5 kt iš Vakarų
Matomumas: 8000 m
Tapsmas
nuo 07 metu 00 UTC su 07 metu 02 UTC
Vėjas 3 kt iš Šiaurės/Šiaurės Vakarų
Matomumas: 2000 m
rūkana
Tapsmas
nuo 07 metu 02 UTC su 07 metu 04 UTC
Vėjas 3 kt iš Šiaurės/Šiaurės Vakarų
Matomumas: 4000 m
rūkana

TAF: VYYY 061700Z 0618/0718 26005KT 8000 NSC BECMG 0700/0702 34003KT 2000 BR BECMG 0702/0704 34003KT 4000 BR

Orai ataskaitas ir orų prognozės (METAR, TAF).

turimą stotys yra geltonos ir raudonos taškus žemėlapyje.

Perkelti pele per norėdami pamatyti stoties vardą.

Tada spustelėkite, norėdami matyti oro stebėjimo ir prognozės.

Norėdami pakeisti žemėlapį: spustelėkite ant žalios mygtukų su juodo kryžiaus žemyn,; žalią mygtuką su brūkšneliu, jei norite nutolinti; arba žalių rodyklių gretimoms žemėlapius.


METAR-TAF: